Time;durP1;ratioP1;P1;durP2;ratioP2;P2;SDS_P1;SDS_P2;PMS_P1;PMS_P2;Temp;Humidity;BMP_temperature;BMP_pressure;BME280_temperature;BME280_humidity;BME280_pressure;Samples;Min_cycle;Max_cycle;Signal;HPM_P1;HPM_P2
2021/10/08 03:33:35;;;;;;;7.43;4.40;;;;;;;12.03;59.73;99855.22;6830254;29;20216;-80
2021/10/08 03:36:59;;;;;;;4.57;3.93;;;;;;;11.68;59.77;99855.19;6840949;28;20236;-80
2021/10/08 03:40:24;;;;;;;5.33;4.80;;;;;;;10.82;62.36;99867.47;6841605;28;20202;-81
2021/10/08 03:43:46;;;;;;;6.20;4.57;;;;;;;11.44;61.41;99866.19;6840911;28;20244;-82
2021/10/08 03:47:14;;;;;;;5.20;4.23;;;;;;;11.73;61.76;99863.53;6841656;28;20205;-82
2021/10/08 03:50:37;;;;;;;7.87;5.20;;;;;;;11.91;60.65;99858.59;6842256;28;20221;-81
2021/10/08 03:53:58;;;;;;;7.13;4.80;;;;;;;11.69;59.70;99864.97;6842581;28;20202;-81
2021/10/08 03:57:20;;;;;;;5.13;4.50;;;;;;;11.43;61.31;99861.81;6843930;28;20198;-81
2021/10/08 04:00:42;;;;;;;8.43;5.23;;;;;;;11.38;61.19;99858.84;6844126;28;20241;-81
2021/10/08 04:04:06;;;;;;;5.13;4.63;;;;;;;11.51;61.09;99850.97;6845353;28;20213;-82
2021/10/08 04:07:29;;;;;;;4.63;4.23;;;;;;;11.53;60.90;99846.19;6860857;28;20231;-83
2021/10/08 04:10:50;;;;;;;6.57;4.60;;;;;;;11.49;60.54;99861.09;6849524;28;20306;-81
2021/10/08 04:14:12;;;;;;;8.37;4.90;;;;;;;11.38;60.36;99857.00;6839121;28;20654;-81
2021/10/08 04:17:34;;;;;;;6.33;4.93;;;;;;;11.58;60.34;99868.94;6839191;28;20610;-82
2021/10/08 04:20:57;;;;;;;5.60;5.00;;;;;;;11.56;60.83;99868.28;6838918;28;20236;-81
2021/10/08 04:24:20;;;;;;;5.70;4.83;;;;;;;11.03;60.95;99846.88;6838644;28;20693;-81
2021/10/08 04:27:41;;;;;;;6.07;4.90;;;;;;;11.21;62.09;99870.84;6839395;28;20677;-82
2021/10/08 04:31:03;;;;;;;5.30;4.77;;;;;;;11.84;60.80;99865.78;6839345;28;20233;-81
2021/10/08 04:34:25;;;;;;;5.23;4.73;;;;;;;11.77;60.80;99854.06;6838130;28;20233;-81
2021/10/08 04:37:47;;;;;;;5.37;4.87;;;;;;;11.85;60.81;99865.59;6839455;28;20698;-81
2021/10/08 04:41:09;;;;;;;6.23;5.20;;;;;;;11.86;60.36;99866.44;6842237;28;20230;-81
2021/10/08 04:44:32;;;;;;;5.33;4.83;;;;;;;12.05;60.04;99855.06;6843640;28;20209;-81
2021/10/08 04:47:54;;;;;;;5.97;4.60;;;;;;;11.87;59.34;99806.78;6844574;28;20669;-81
2021/10/08 04:51:15;;;;;;;7.17;4.90;;;;;;;12.20;58.62;99861.25;6845814;28;20221;-81
2021/10/08 04:54:38;;;;;;;5.53;4.87;;;;;;;12.13;59.08;99854.94;6838902;28;20265;-81
2021/10/08 04:58:01;;;;;;;5.80;5.20;;;;;;;11.65;59.97;99866.34;6817689;29;20230;-81
2021/10/08 05:01:22;;;;;;;8.77;6.40;;;;;;;11.66;61.13;99862.63;6831691;29;20229;-82
2021/10/08 05:04:44;;;;;;;12.37;7.57;;;;;;;12.06;60.66;99872.94;6843988;29;20205;-81
2021/10/08 05:08:06;;;;;;;10.10;6.30;;;;;;;11.97;60.39;99880.31;6833788;28;20221;-82
2021/10/08 05:11:28;;;;;;;11.00;6.90;;;;;;;11.52;62.80;99863.44;6829694;28;20226;-81
2021/10/08 05:14:51;;;;;;;8.33;6.97;;;;;;;12.03;61.26;99854.41;6827485;29;20227;-82
2021/10/08 05:18:12;;;;;;;10.07;8.20;;;;;;;12.43;59.88;99879.03;6823252;29;20202;-81
2021/10/08 05:21:34;;;;;;;9.77;7.50;;;;;;;12.46;60.24;99864.28;6842180;28;20259;-82
2021/10/08 05:24:56;;;;;;;8.80;7.10;;;;;;;12.23;59.29;99861.72;6845252;28;20237;-82
2021/10/08 05:28:17;;;;;;;9.87;6.47;;;;;;;12.12;60.49;99874.88;6845601;28;20201;-81
2021/10/08 05:31:40;;;;;;;13.33;7.90;;;;;;;12.17;61.05;99873.28;6844044;28;20249;-81
2021/10/08 05:35:02;;;;;;;13.63;7.20;;;;;;;11.96;61.86;99869.69;6823811;28;20245;-80
2021/10/08 05:38:24;;;;;;;17.37;9.67;;;;;;;12.29;61.64;99865.53;6820806;28;20299;-80
2021/10/08 05:41:46;;;;;;;17.83;10.10;;;;;;;12.42;61.92;99865.69;6817506;29;20634;-80
2021/10/08 05:45:08;;;;;;;82.10;11.27;;;;;;;11.90;62.60;99878.53;6818248;29;20234;-80
2021/10/08 05:48:31;;;;;;;19.37;10.43;;;;;;;12.32;62.72;99876.81;6843637;29;20220;-81
2021/10/08 05:51:53;;;;;;;33.57;9.80;;;;;;;12.29;63.33;99854.72;6839645;28;20237;-81
2021/10/08 05:55:14;;;;;;;26.97;10.57;;;;;;;12.60;62.70;99866.94;6825132;29;20701;-81
2021/10/08 05:58:36;;;;;;;36.63;10.53;;;;;;;12.74;62.47;99881.44;6828069;28;20209;-81
2021/10/08 06:01:57;;;;;;;31.17;10.83;;;;;;;12.85;62.07;99880.91;6844431;28;20243;-81
2021/10/08 06:05:20;;;;;;;73.07;15.80;;;;;;;12.56;62.46;99873.75;6844467;28;20233;-80
2021/10/08 06:08:42;;;;;;;32.50;11.03;;;;;;;12.52;63.08;99871.63;6845034;28;20662;-80
2021/10/08 06:12:04;;;;;;;17.90;10.67;;;;;;;12.70;63.10;99866.63;6843997;28;20237;-81
2021/10/08 06:15:26;;;;;;;20.93;10.33;;;;;;;12.90;62.61;99868.47;6844746;28;20240;-81
2021/10/08 06:18:47;;;;;;;24.43;11.13;;;;;;;13.06;62.24;99883.66;6846218;28;20221;-81
2021/10/08 06:22:10;;;;;;;23.27;10.43;;;;;;;13.00;62.07;99887.13;6847097;28;20236;-81
2021/10/08 06:25:32;;;;;;;55.43;12.23;;;;;;;12.95;62.00;99893.13;6847745;28;20209;-82
2021/10/08 06:28:54;;;;;;;40.27;11.80;;;;;;;13.01;62.40;99889.66;6832203;28;20209;-82
2021/10/08 06:32:18;;;;;;;28.33;13.03;;;;;;;12.95;62.47;99884.13;6854836;28;20236;-82
2021/10/08 06:35:41;;;;;;;34.50;13.97;;;;;;;13.27;62.02;99905.31;6855090;28;20217;-82
2021/10/08 06:39:04;;;;;;;125.43;15.73;;;;;;;13.21;61.68;99897.97;6849345;28;20238;-82
2021/10/08 06:42:26;;;;;;;49.53;14.47;;;;;;;12.63;63.26;99901.72;6827298;28;20222;-82
2021/10/08 06:45:47;;;;;;;169.73;19.67;;;;;;;13.03;62.82;99906.53;6842754;28;20206;-81
2021/10/08 06:49:10;;;;;;;76.87;16.47;;;;;;;13.16;63.35;99893.09;6841960;28;20209;-81
2021/10/08 06:52:31;;;;;;;103.80;16.80;;;;;;;13.14;62.78;99897.88;6841885;28;20230;-81
2021/10/08 06:55:54;;;;;;;87.00;17.83;;;;;;;13.07;62.95;99882.59;6824344;28;20230;-81
2021/10/08 06:59:16;;;;;;;66.00;17.03;;;;;;;12.77;63.99;99891.88;6813594;29;20206;-81
2021/10/08 07:02:47;;;;;;;43.87;17.00;;;;;;;12.94;63.60;99886.03;6813927;29;20233;-81
2021/10/08 07:06:08;;;;;;;62.17;16.10;;;;;;;12.52;64.36;99898.69;6814774;29;20194;-82
2021/10/08 07:09:30;;;;;;;32.57;17.43;;;;;;;12.56;65.38;99892.69;6824364;29;20693;-81
2021/10/08 07:12:53;;;;;;;58.23;18.93;;;;;;;12.82;64.16;99886.72;6814731;29;20438;-81
2021/10/08 07:16:15;;;;;;;26.50;17.17;;;;;;;13.35;64.07;99897.88;6837678;29;20282;-81
2021/10/08 07:19:36;;;;;;;23.43;17.03;;;;;;;13.59;63.00;99894.72;6842717;28;20217;-80
2021/10/08 07:22:58;;;;;;;27.20;17.57;;;;;;;13.82;62.43;99895.28;6841999;28;20314;-81
2021/10/08 07:26:22;;;;;;;23.87;16.83;;;;;;;13.51;63.22;99899.44;6843441;28;20205;-81
2021/10/08 07:29:45;;;;;;;20.87;15.40;;;;;;;14.13;61.95;99902.94;6846614;28;20206;-81
2021/10/08 07:33:06;;;;;;;21.30;14.53;;;;;;;14.44;60.73;99895.19;6842985;28;20234;-82
2021/10/08 07:36:28;;;;;;;25.27;13.87;;;;;;;14.06;60.69;99878.53;6840637;28;20622;-81
2021/10/08 07:39:52;;;;;;;22.40;15.27;;;;;;;14.03;61.03;99894.34;6840174;28;20206;-80
2021/10/08 07:43:13;;;;;;;116.87;19.13;;;;;;;14.34;58.28;99886.59;6840381;28;20230;-81
2021/10/08 07:46:36;;;;;;;19.93;15.00;;;;;;;14.28;60.41;99885.53;6833079;28;20213;-80
2021/10/08 07:49:58;;;;;;;23.03;15.70;;;;;;;13.93;61.14;99886.56;6821552;29;20229;-82
2021/10/08 07:53:20;;;;;;;17.53;13.87;;;;;;;13.71;62.40;99878.72;6831875;28;20588;-81
2021/10/08 07:56:41;;;;;;;16.80;13.63;;;;;;;14.63;61.50;99883.56;6824163;29;20625;-82
2021/10/08 08:00:03;;;;;;;15.17;12.80;;;;;;;14.90;58.90;99863.56;6833223;29;20563;-82
2021/10/08 08:03:27;;;;;;;13.83;11.77;;;;;;;14.66;59.85;99894.00;6839291;28;20228;-82
2021/10/08 08:06:49;;;;;;;16.23;13.73;;;;;;;15.50;58.38;99871.53;6820302;28;20215;-83
2021/10/08 08:10:13;;;;;;;13.30;11.90;;;;;;;16.25;55.05;99874.50;6830162;29;20207;-85
2021/10/08 08:13:34;;;;;;;15.17;11.10;;;;;;;16.33;55.49;99869.66;6842647;28;20211;-86
2021/10/08 08:16:56;;;;;;;13.87;12.57;;;;;;;16.23;56.56;99863.81;6845474;28;20226;-85
2021/10/08 08:20:19;;;;;;;13.23;10.70;;;;;;;16.59;55.25;99855.97;6829073;28;20207;-82
2021/10/08 08:23:41;;;;;;;15.40;11.63;;;;;;;16.79;54.25;99862.09;6845443;28;20212;-82
2021/10/08 08:27:03;;;;;;;15.57;12.60;;;;;;;16.56;54.98;99869.16;6846513;28;20211;-82
2021/10/08 08:30:25;;;;;;;14.83;13.13;;;;;;;16.87;54.77;99864.56;6848343;28;20220;-84
2021/10/08 08:33:47;;;;;;;17.73;13.77;;;;;;;16.61;54.68;99842.94;6839839;28;20210;-84
2021/10/08 08:37:10;;;;;;;17.43;14.17;;;;;;;16.26;55.72;99859.84;6830300;28;20237;-81
2021/10/08 08:40:32;;;;;;;17.90;14.90;;;;;;;15.76;57.71;99839.69;6835685;28;20199;-82
2021/10/08 08:43:53;;;;;;;29.93;21.43;;;;;;;16.13;57.24;99862.63;6831087;29;20198;-82
2021/10/08 08:47:16;;;;;;;18.60;14.90;;;;;;;15.87;57.00;99862.72;6832707;29;20214;-82
2021/10/08 08:50:39;;;;;;;17.90;15.10;;;;;;;16.13;57.41;99859.91;6830432;28;20217;-82
2021/10/08 08:54:06;;;;;;;15.53;13.87;;;;;;;15.91;57.08;99853.91;6831049;28;20211;-80
2021/10/08 08:57:28;;;;;;;18.30;13.27;;;;;;;16.31;56.53;99854.59;6834971;28;20266;-83
2021/10/08 09:00:56;;;;;;;17.70;14.00;;;;;;;16.60;55.39;99846.72;6844071;28;20227;-82
2021/10/08 09:04:19;;;;;;;18.27;13.50;;;;;;;16.73;55.49;99849.38;6841032;28;20663;-81
2021/10/08 09:07:41;;;;;;;17.13;13.20;;;;;;;17.00;55.23;99850.03;6835204;29;20278;-82
2021/10/08 09:11:05;;;;;;;15.60;12.80;;;;;;;17.04;54.59;99846.63;6836442;29;20707;-82
2021/10/08 09:14:29;;;;;;;15.87;13.93;;;;;;;16.81;55.78;99861.91;6829885;28;20283;-83
2021/10/08 09:18:05;;;;;;;13.87;11.80;;;;;;;17.04;54.93;99846.63;6844697;28;20729;-83
2021/10/08 09:21:33;;;;;;;15.13;12.13;;;;;;;17.27;53.55;99851.50;6829189;28;20257;-82
2021/10/08 09:24:55;;;;;;;15.67;12.20;;;;;;;17.17;54.44;99830.16;6844204;28;20375;-82
2021/10/08 09:28:18;;;;;;;12.63;11.30;;;;;;;17.47;53.49;99847.56;6843959;28;20562;-83
2021/10/08 09:31:41;;;;;;;13.40;11.40;;;;;;;17.76;52.94;99846.84;6840890;28;20283;-83
2021/10/08 09:35:07;;;;;;;13.43;11.53;;;;;;;17.73;52.53;99836.38;6844966;28;20222;-82
2021/10/08 09:38:33;;;;;;;14.07;11.50;;;;;;;17.66;52.59;99835.63;6844528;28;20235;-82
2021/10/08 09:42:08;;;;;;;14.40;10.50;;;;;;;17.48;53.61;99853.84;6843255;28;20226;-82
2021/10/08 09:45:42;;;;;;;15.40;10.77;;;;;;;17.61;52.86;99842.81;6847142;28;20337;-82
2021/10/08 09:49:04;;;;;;;11.80;10.53;;;;;;;17.60;53.99;99838.41;6843729;28;20208;-82
2021/10/08 09:52:28;;;;;;;12.00;9.20;;;;;;;18.26;52.08;99850.25;6844425;28;20251;-83
2021/10/08 09:56:02;;;;;;;12.47;10.23;;;;;;;18.38;51.44;99845.72;6836296;28;20685;-84
2021/10/08 09:59:38;;;;;;;11.47;9.50;;;;;;;17.93;53.75;99847.91;6818187;29;20217;-83
2021/10/08 10:03:02;;;;;;;13.07;10.07;;;;;;;17.97;52.78;99832.75;6818030;29;20624;-83
2021/10/08 10:06:24;;;;;;;10.30;9.27;;;;;;;18.33;52.18;99838.22;6836409;28;20209;-83
2021/10/08 10:09:46;;;;;;;10.43;9.27;;;;;;;18.26;52.38;99842.06;6843693;28;20574;-83
2021/10/08 10:13:10;;;;;;;14.93;10.10;;;;;;;18.40;52.79;99844.41;6843335;28;20232;-81
2021/10/08 10:16:34;;;;;;;10.77;9.40;;;;;;;17.37;51.72;99640.00;6921685;23;20231;-95
2021/10/08 10:20:09;;;;;;;12.83;10.13;;;;;;;17.60;51.82;99645.63;6881975;28;20697;-96
2021/10/08 10:23:37;;;;;;;11.60;10.33;;;;;;;17.69;51.00;99657.03;6867248;28;20636;-95
2021/10/08 10:27:01;;;;;;;10.57;9.47;;;;;;;19.02;50.69;99854.03;6866779;28;20225;-93
2021/10/08 10:30:23;;;;;;;12.60;9.90;;;;;;;18.05;50.45;99671.41;6866170;28;20412;-93
2021/10/08 10:33:46;;;;;;;11.93;9.83;;;;;;;17.75;52.36;99787.88;6866829;28;20292;-93
2021/10/08 10:37:10;;;;;;;10.73;9.37;;;;;;;18.61;51.96;99833.00;6866186;28;20288;-94
2021/10/08 10:40:36;;;;;;;10.17;9.17;;;;;;;17.80;51.07;99659.00;6866984;28;20213;-94
2021/10/08 10:44:25;;;;;;;10.13;9.13;;;;;;;17.17;52.71;99698.53;6867292;28;20208;-95
2021/10/08 10:48:16;;;;;;;10.63;9.53;;;;;;;18.23;50.99;99656.88;6866288;28;20227;-94
2021/10/08 10:51:38;;;;;;;10.27;9.00;;;;;;;18.43;49.93;99657.44;6867148;28;20553;-92
2021/10/08 10:55:20;;;;;;;10.57;9.10;;;;;;;19.08;50.11;99702.75;6866418;28;20236;-93
2021/10/08 10:58:42;;;;;;;10.30;8.93;;;;;;;19.22;49.46;99709.69;6865912;28;20275;-93
2021/10/08 11:02:24;;;;;;;9.53;8.60;;;;;;;20.18;47.94;99777.22;6865358;28;20299;-93
2021/10/08 11:06:05;;;;;;;10.50;8.70;;;;;;;20.22;49.57;99813.19;6866405;28;20209;-93
2021/10/08 11:09:27;;;;;;;10.90;8.13;;;;;;;19.75;49.13;99727.56;6864841;28;20233;-94
2021/10/08 11:12:51;;;;;;;11.03;9.00;;;;;;;19.25;50.42;99767.47;6865560;28;20686;-94
2021/10/08 11:16:21;;;;;;;10.27;8.43;;;;;;;18.80;49.56;99621.47;6866814;28;20229;-93
2021/10/08 11:20:03;;;;;;;11.83;8.50;;;;;;;19.49;48.70;99700.72;6869409;28;20671;-96
2021/10/08 11:23:32;;;;;;;9.57;7.50;;;;;;;20.03;48.13;99696.63;6866348;28;20205;-94
2021/10/08 11:26:57;;;;;;;10.43;8.43;;;;;;;19.83;47.06;99589.50;6868820;28;20208;-95
2021/10/08 11:30:21;;;;;;;8.80;7.40;;;;;;;19.67;48.86;99762.66;6859264;23;20734;-79
2021/10/08 11:33:45;;;;;;;7.70;6.77;;;;;;;20.20;49.14;99780.56;6838582;28;20205;-80
2021/10/08 11:37:06;;;;;;;9.33;7.53;;;;;;;19.60;48.40;99751.03;6811827;28;20598;-79
2021/10/08 11:40:29;;;;;;;8.23;7.40;;;;;;;19.68;49.55;99784.31;6823058;29;20215;-81
2021/10/08 11:44:04;;;;;;;8.50;7.00;;;;;;;19.82;49.00;99782.97;6796753;29;20249;-80
2021/10/08 11:47:31;;;;;;;9.43;7.43;;;;;;;20.21;49.56;99779.47;6815231;29;20213;-79
2021/10/08 11:51:01;;;;;;;8.93;7.13;;;;;;;19.85;49.73;99776.19;6807374;29;20202;-78
2021/10/08 11:54:23;;;;;;;8.10;7.13;;;;;;;21.00;48.09;99779.34;6807923;29;20229;-78
2021/10/08 11:57:55;;;;;;;8.33;7.23;;;;;;;20.60;47.00;99745.72;6814261;28;20617;-78
2021/10/08 12:01:21;;;;;;;10.47;7.37;;;;;;;20.83;47.08;99779.28;6812502;29;20202;-79
2021/10/08 12:04:57;;;;;;;10.03;6.87;;;;;;;21.16;46.82;99764.78;6814030;29;20310;-81
2021/10/08 12:08:21;;;;;;;11.33;7.10;;;;;;;20.69;47.02;99771.63;6786420;29;20286;-80
2021/10/08 12:11:43;;;;;;;9.57;7.10;;;;;;;19.55;50.08;99761.84;6786194;29;20215;-80
2021/10/08 12:15:05;;;;;;;8.77;7.10;;;;;;;19.87;49.67;99772.16;6786683;29;20231;-78
2021/10/08 12:18:26;;;;;;;7.83;7.13;;;;;;;20.17;49.19;99761.03;6786697;29;20241;-80
2021/10/08 12:21:50;;;;;;;7.77;7.07;;;;;;;20.45;48.73;99763.78;6808127;29;20214;-80
2021/10/08 12:25:11;;;;;;;7.20;6.50;;;;;;;21.15;46.53;99749.41;6814096;29;20234;-79
2021/10/08 12:28:33;;;;;;;8.37;7.57;;;;;;;20.86;46.53;99752.47;6813467;29;20215;-79
2021/10/08 12:31:56;;;;;;;9.03;7.40;;;;;;;20.27;47.30;99695.50;6804403;29;20212;-78
2021/10/08 12:35:19;;;;;;;8.00;6.63;;;;;;;20.74;47.84;99751.72;6809024;29;20234;-79
2021/10/08 12:38:54;;;;;;;7.97;7.20;;;;;;;21.17;47.17;99743.69;6812146;29;20230;-79
2021/10/08 12:42:20;;;;;;;8.37;7.40;;;;;;;21.85;45.85;99755.97;6806013;29;20224;-80
2021/10/08 12:45:45;;;;;;;7.73;6.87;;;;;;;21.79;44.84;99746.00;6824228;29;20261;-79
2021/10/08 12:49:07;;;;;;;7.40;6.70;;;;;;;21.73;45.39;99739.59;6799931;29;20203;-79
2021/10/08 12:52:37;;;;;;;8.97;7.07;;;;;;;21.86;44.10;99736.50;6802802;29;20211;-78
2021/10/08 12:56:20;;;;;;;8.07;6.27;;;;;;;21.27;46.00;99742.78;6795935;29;20226;-79
2021/10/08 12:59:49;;;;;;;8.40;6.87;;;;;;;21.51;46.54;99741.47;6795368;29;20207;-80
2021/10/08 13:03:28;;;;;;;7.50;6.80;;;;;;;21.64;46.26;99737.53;6814912;29;20217;-80
2021/10/08 13:06:52;;;;;;;9.83;7.33;;;;;;;21.63;46.09;99746.84;6814545;29;20230;-80
2021/10/08 13:10:16;;;;;;;8.10;7.23;;;;;;;20.43;47.61;99733.88;6812034;29;20210;-80
2021/10/08 13:13:45;;;;;;;7.83;6.80;;;;;;;20.88;47.35;99736.59;6815487;29;20305;-78
2021/10/08 13:17:16;;;;;;;10.93;6.37;;;;;;;21.27;47.34;99732.88;6817447;29;20555;-79
2021/10/08 13:20:41;;;;;;;7.63;6.60;;;;;;;20.20;49.01;99731.25;6816724;29;20218;-78
2021/10/08 13:24:02;;;;;;;8.90;7.07;;;;;;;20.95;47.66;99720.84;6817210;29;20267;-79
2021/10/08 13:27:24;;;;;;;7.80;6.20;;;;;;;21.13;47.23;99735.94;6815416;29;20214;-80
2021/10/08 13:30:52;;;;;;;7.73;6.70;;;;;;;21.59;45.63;99721.81;6815461;29;20218;-79
2021/10/08 13:34:14;;;;;;;7.43;6.40;;;;;;;20.84;46.48;99689.66;6810178;29;20231;-79
2021/10/08 13:37:35;;;;;;;7.33;6.50;;;;;;;21.59;45.83;99732.81;6808085;29;20262;-79
2021/10/08 13:40:59;;;;;;;7.43;6.57;;;;;;;20.35;48.29;99725.25;6807394;29;20207;-79
2021/10/08 13:44:20;;;;;;;6.67;6.07;;;;;;;20.51;47.63;99724.44;6815549;29;20231;-79
2021/10/08 13:47:43;;;;;;;7.13;6.43;;;;;;;20.50;47.11;99731.81;6814536;29;20202;-80
2021/10/08 13:51:05;;;;;;;6.63;6.03;;;;;;;21.24;45.93;99715.03;6815196;29;20754;-78
2021/10/08 13:54:27;;;;;;;7.70;6.17;;;;;;;21.22;46.40;99700.69;6791132;29;20231;-80
2021/10/08 13:57:48;;;;;;;7.83;6.57;;;;;;;21.12;45.66;99725.25;6788203;29;20242;-79
2021/10/08 14:01:10;;;;;;;6.87;5.90;;;;;;;19.97;47.15;99703.94;6802214;29;20678;-80
2021/10/08 14:04:39;;;;;;;8.13;6.33;;;;;;;20.91;46.39;99709.53;6817392;29;20790;-80
2021/10/08 14:11:40;;;;;;;7.80;6.53;;;;;;;21.16;45.53;99709.13;6813044;29;20190;-80
2021/10/08 14:15:02;;;;;;;7.30;6.60;;;;;;;21.01;45.14;99714.34;6811998;28;20265;-80
2021/10/08 14:18:25;;;;;;;7.33;6.63;;;;;;;20.13;46.81;99716.03;6804258;29;20258;-82
2021/10/08 14:21:48;;;;;;;6.73;6.00;;;;;;;20.50;47.03;99707.16;6800618;29;20241;-79
2021/10/08 14:25:09;;;;;;;9.17;6.50;;;;;;;21.10;46.53;99707.38;6801034;29;20690;-79
2021/10/08 14:28:32;;;;;;;7.63;6.30;;;;;;;21.05;45.73;99710.84;6811958;29;20745;-80
2021/10/08 14:31:54;;;;;;;7.10;6.50;;;;;;;20.95;46.52;99701.66;6811414;29;20218;-80
2021/10/08 14:35:16;;;;;;;9.33;7.00;;;;;;;20.63;47.25;99676.69;6821288;29;20258;-80
2021/10/08 14:38:39;;;;;;;11.40;7.33;;;;;;;20.27;48.42;99701.81;6815289;29;20584;-80
2021/10/08 14:42:00;;;;;;;7.03;6.33;;;;;;;21.20;46.66;99703.69;6840071;28;20233;-79
2021/10/08 14:45:23;;;;;;;13.87;6.77;;;;;;;20.89;47.11;99702.66;6820617;28;20244;-79
2021/10/08 14:48:46;;;;;;;10.87;9.43;;;;;;;21.42;46.84;99695.53;6813685;29;20207;-80
2021/10/08 14:52:09;;;;;;;8.73;7.63;;;;;;;20.08;49.50;99697.63;6810899;29;20231;-80
2021/10/08 14:55:42;;;;;;;8.77;7.53;;;;;;;21.35;46.11;99694.84;6789259;29;20595;-82
2021/10/08 14:59:03;;;;;;;8.00;7.20;;;;;;;21.27;46.30;99692.56;6797990;29;20213;-80
2021/10/08 15:02:27;;;;;;;8.73;7.57;;;;;;;20.96;46.85;99697.81;6814796;29;20211;-81
2021/10/08 15:05:48;;;;;;;8.33;7.10;;;;;;;20.95;46.95;99691.53;6815642;29;20231;-80
2021/10/08 15:09:10;;;;;;;9.70;8.53;;;;;;;20.67;47.53;99688.81;6811205;29;20205;-79
2021/10/08 15:12:33;;;;;;;7.73;7.03;;;;;;;21.65;45.79;99684.31;6805709;29;20206;-80
2021/10/08 15:15:54;;;;;;;8.87;7.80;;;;;;;21.85;44.48;99682.69;6813193;29;20229;-80
2021/10/08 15:19:16;;;;;;;9.20;8.03;;;;;;;21.23;46.03;99685.09;6805610;29;20229;-80
2021/10/08 15:22:39;;;;;;;9.40;7.73;;;;;;;20.47;47.66;99652.03;6815124;29;20214;-80
2021/10/08 15:26:01;;;;;;;11.00;8.50;;;;;;;21.15;46.65;99675.38;6810755;29;20223;-79
2021/10/08 15:29:24;;;;;;;8.60;7.80;;;;;;;20.74;47.71;99666.75;6788081;29;20868;-79
2021/10/08 15:32:46;;;;;;;11.27;10.17;;;;;;;20.15;47.83;99637.19;6797660;29;20206;-79
2021/10/08 15:36:07;;;;;;;8.97;8.07;;;;;;;20.82;47.75;99674.53;6780775;29;20224;-79
2021/10/08 15:39:29;;;;;;;8.90;8.03;;;;;;;;;;6802964;29;20240;-80
2021/10/08 15:42:50;;;;;;;11.50;7.97;;;;;;;21.45;45.18;99673.03;6806976;29;20215;-79
2021/10/08 15:46:14;;;;;;;9.30;8.30;;;;;;;21.10;46.14;99671.72;6814302;29;20232;-79
2021/10/08 15:49:36;;;;;;;16.57;8.00;;;;;;;20.58;47.16;99660.16;6822571;29;20211;-79
2021/10/08 15:52:57;;;;;;;9.27;8.23;;;;;;;20.96;46.93;99684.97;6803769;29;20206;-78
2021/10/08 15:56:19;;;;;;;10.27;7.70;;;;;;;20.89;47.13;99678.81;6794500;29;20226;-79
2021/10/08 15:59:41;;;;;;;7.97;6.80;;;;;;;21.12;46.19;99681.38;6796843;29;20699;-79
2021/10/08 16:03:04;;;;;;;10.57;8.17;;;;;;;20.63;47.22;99686.84;6793957;29;20210;-79
2021/10/08 16:06:25;;;;;;;9.80;8.70;;;;;;;20.79;46.71;99689.56;6806319;29;20252;-78
2021/10/08 16:09:47;;;;;;;9.30;8.40;;;;;;;20.83;46.88;99670.72;6807739;29;20210;-79
2021/10/08 16:13:09;;;;;;;10.47;8.43;;;;;;;20.75;47.72;99677.44;6806915;29;20663;-79
2021/10/08 16:16:40;;;;;;;11.93;8.47;;;;;;;20.84;47.30;99693.22;6827696;23;20236;-82
2021/10/08 16:20:03;;;;;;;10.07;8.90;;;;;;;20.41;48.38;99681.22;6818505;29;20718;-82
2021/10/08 16:23:25;;;;;;;10.30;8.80;;;;;;;20.59;48.10;99693.88;6806934;29;20215;-82
2021/10/08 16:26:47;;;;;;;10.00;8.73;;;;;;;20.57;47.93;99690.56;6791886;29;20590;-82
2021/10/08 16:30:09;;;;;;;9.33;8.30;;;;;;;20.46;47.82;99695.03;6789942;29;20299;-82
2021/10/08 16:33:31;;;;;;;8.73;7.93;;;;;;;20.51;47.81;99689.63;6792124;29;20207;-82
2021/10/08 16:36:57;;;;;;;9.10;8.17;;;;;;;20.56;48.27;99684.25;6794827;29;20207;-82
2021/10/08 16:40:18;;;;;;;11.03;9.90;;;;;;;20.07;49.63;99695.09;6796215;29;20231;-81
2021/10/08 16:43:40;;;;;;;10.40;8.90;;;;;;;20.18;50.21;99699.72;6794405;29;20211;-82
2021/10/08 16:47:02;;;;;;;13.00;9.80;;;;;;;19.71;51.39;99665.34;6796866;29;20683;-82
2021/10/08 16:50:23;;;;;;;12.40;9.40;;;;;;;19.90;51.81;99707.88;6803917;29;20384;-82
2021/10/08 16:53:49;;;;;;;11.47;9.90;;;;;;;19.37;52.70;99710.00;6794150;29;20214;-82
2021/10/08 16:57:11;;;;;;;10.20;9.10;;;;;;;19.33;53.12;99700.66;6770854;29;20192;-82
2021/10/08 17:00:33;;;;;;;11.17;9.97;;;;;;;19.33;52.98;99701.47;6784909;29;20206;-82
2021/10/08 17:03:54;;;;;;;13.27;10.03;;;;;;;19.34;52.68;99700.38;6795058;29;20324;-82
2021/10/08 17:07:16;;;;;;;13.47;11.10;;;;;;;19.07;52.79;99714.75;6795857;29;20207;-82
2021/10/08 17:10:39;;;;;;;12.97;11.67;;;;;;;18.39;54.65;99708.13;6794701;29;20216;-82
2021/10/08 17:14:01;;;;;;;14.23;12.70;;;;;;;18.53;54.38;99702.25;6794638;29;20229;-81
2021/10/08 17:17:23;;;;;;;13.57;11.70;;;;;;;18.02;55.27;99720.16;6793312;29;20198;-82
2021/10/08 17:20:47;;;;;;;12.97;11.63;;;;;;;18.01;55.42;99726.69;6793250;29;20290;-82
2021/10/08 17:24:10;;;;;;;14.37;12.10;;;;;;;17.78;55.51;99708.31;6790803;29;20245;-83
2021/10/08 17:27:35;;;;;;;15.63;13.47;;;;;;;17.76;56.02;99720.53;6793001;29;20580;-82
2021/10/08 17:31:09;;;;;;;15.03;12.70;;;;;;;17.70;56.11;99721.44;6792787;29;20216;-82
2021/10/08 17:34:30;;;;;;;16.80;12.87;;;;;;;17.81;55.59;99723.41;6792094;29;20732;-82
2021/10/08 17:37:52;;;;;;;12.87;11.40;;;;;;;17.39;56.27;99716.16;6792894;29;20228;-83
2021/10/08 17:41:14;;;;;;;13.63;12.20;;;;;;;17.50;55.69;99699.84;6792294;29;20570;-82
2021/10/08 17:44:37;;;;;;;16.73;13.13;;;;;;;17.29;56.43;99715.81;6793402;29;20753;-82
2021/10/08 17:48:03;;;;;;;16.50;14.10;;;;;;;17.07;57.10;99717.28;6791404;29;20209;-82
2021/10/08 17:51:26;;;;;;;17.33;14.77;;;;;;;17.20;57.14;99723.44;6792029;29;20205;-82
2021/10/08 17:54:47;;;;;;;19.50;14.63;;;;;;;17.29;56.65;99729.44;6791303;29;20235;-82
2021/10/08 17:58:09;;;;;;;14.43;12.93;;;;;;;17.25;56.55;99730.94;6791601;29;20252;-82
2021/10/08 18:01:34;;;;;;;16.53;13.77;;;;;;;16.64;57.12;99679.09;6791485;29;20741;-82
2021/10/08 18:04:56;;;;;;;16.33;12.60;;;;;;;16.93;57.16;99727.47;6792830;29;20237;-82
2021/10/08 18:08:17;;;;;;;14.83;13.23;;;;;;;16.77;56.78;99732.66;6794186;29;20213;-82
2021/10/08 18:11:39;;;;;;;18.30;13.60;;;;;;;16.60;57.85;99726.06;6792340;29;20219;-82
2021/10/08 18:15:01;;;;;;;15.43;13.63;;;;;;;16.69;57.05;99732.94;6792218;29;20632;-82
2021/10/08 18:18:24;;;;;;;16.23;12.87;;;;;;;16.63;56.80;99701.97;6791901;29;20235;-82
2021/10/08 18:21:46;;;;;;;14.40;12.50;;;;;;;16.42;57.38;99709.66;6791003;29;20211;-82
2021/10/08 18:25:08;;;;;;;17.03;14.17;;;;;;;16.38;57.92;99746.50;6790894;29;20233;-82
2021/10/08 18:28:30;;;;;;;17.53;14.00;;;;;;;16.12;58.91;99733.91;6791703;29;20207;-82
2021/10/08 18:31:52;;;;;;;14.77;13.27;;;;;;;16.00;58.86;99729.38;6792390;29;20212;-82
2021/10/08 18:35:15;;;;;;;19.47;13.60;;;;;;;15.87;59.24;99734.88;6792794;29;20227;-81
2021/10/08 18:38:37;;;;;;;17.33;14.37;;;;;;;15.93;59.25;99737.56;6793478;29;20235;-82
2021/10/08 18:41:59;;;;;;;21.83;15.03;;;;;;;15.40;60.46;99743.41;6793987;29;20217;-82
2021/10/08 18:45:22;;;;;;;17.10;14.87;;;;;;;15.53;59.71;99738.78;6808035;29;20234;-82
2021/10/08 18:48:44;;;;;;;17.10;14.10;;;;;;;15.58;59.97;99722.63;6790385;29;20214;-82
2021/10/08 18:52:07;;;;;;;24.07;19.23;;;;;;;15.43;59.97;99722.09;6790415;29;20224;-82
2021/10/08 18:55:30;;;;;;;23.10;17.70;;;;;;;15.39;60.05;99728.16;6791268;29;20731;-82
2021/10/08 18:58:52;;;;;;;21.70;17.30;;;;;;;15.51;60.04;99734.59;6791206;29;20230;-82
2021/10/08 19:02:14;;;;;;;17.60;14.83;;;;;;;15.76;59.10;99725.50;6790732;29;20585;-82
2021/10/08 19:05:35;;;;;;;18.47;15.47;;;;;;;15.83;58.67;99736.34;6791441;29;20596;-82
2021/10/08 19:09:01;;;;;;;20.00;15.43;;;;;;;15.88;58.29;99745.56;6791992;29;20223;-82
2021/10/08 19:12:33;;;;;;;16.10;14.37;;;;;;;15.84;58.08;99744.31;6791355;29;20188;-82
2021/10/08 19:15:58;;;;;;;17.00;14.13;;;;;;;15.47;58.28;99734.22;6790864;29;20249;-83
2021/10/08 19:19:46;;;;;;;19.27;15.77;;;;;;;14.80;60.06;99738.25;6792259;29;20255;-82
2021/10/08 19:23:08;;;;;;;19.77;14.47;;;;;;;14.81;60.12;99729.06;6791111;29;20216;-82